sensor_id;sensor_type;location;lat;lon;timestamp;P1;durP1;ratioP1;P2;durP2;ratioP2
74320;SDS011;62738;45.772;4.804;2023-03-01T00:02:01;15.77;;;9.07;;
74320;SDS011;62738;45.772;4.804;2023-03-01T00:04:28;15.40;;;9.20;;
74320;SDS011;62738;45.772;4.804;2023-03-01T00:06:54;16.52;;;9.52;;
74320;SDS011;62738;45.772;4.804;2023-03-01T00:09:21;16.92;;;9.98;;
74320;SDS011;62738;45.772;4.804;2023-03-01T00:11:48;15.10;;;9.23;;
74320;SDS011;62738;45.772;4.804;2023-03-01T00:14:15;17.05;;;10.40;;
74320;SDS011;62738;45.772;4.804;2023-03-01T00:16:44;13.98;;;7.82;;
74320;SDS011;62738;45.772;4.804;2023-03-01T00:19:16;15.90;;;8.65;;
74320;SDS011;62738;45.772;4.804;2023-03-01T00:21:44;15.85;;;9.40;;
74320;SDS011;62738;45.772;4.804;2023-03-01T00:24:11;15.93;;;8.80;;
74320;SDS011;62738;45.772;4.804;2023-03-01T00:26:38;15.27;;;8.75;;
74320;SDS011;62738;45.772;4.804;2023-03-01T00:29:05;15.52;;;9.45;;
74320;SDS011;62738;45.772;4.804;2023-03-01T00:31:32;16.15;;;10.10;;
74320;SDS011;62738;45.772;4.804;2023-03-01T00:34:01;16.98;;;10.02;;
74320;SDS011;62738;45.772;4.804;2023-03-01T00:36:30;16.65;;;8.73;;
74320;SDS011;62738;45.772;4.804;2023-03-01T00:38:59;16.58;;;9.05;;
74320;SDS011;62738;45.772;4.804;2023-03-01T00:41:26;15.35;;;8.80;;
74320;SDS011;62738;45.772;4.804;2023-03-01T00:43:53;17.90;;;8.90;;
74320;SDS011;62738;45.772;4.804;2023-03-01T00:46:21;17.88;;;9.45;;
74320;SDS011;62738;45.772;4.804;2023-03-01T00:48:50;17.17;;;9.73;;
74320;SDS011;62738;45.772;4.804;2023-03-01T00:51:23;16.65;;;8.38;;
74320;SDS011;62738;45.772;4.804;2023-03-01T00:53:53;15.57;;;9.23;;
74320;SDS011;62738;45.772;4.804;2023-03-01T00:56:21;15.35;;;9.30;;
74320;SDS011;62738;45.772;4.804;2023-03-01T00:58:47;18.23;;;9.55;;
74320;SDS011;62738;45.772;4.804;2023-03-01T01:01:15;16.13;;;8.90;;
74320;SDS011;62738;45.772;4.804;2023-03-01T01:03:45;16.42;;;9.55;;
74320;SDS011;62738;45.772;4.804;2023-03-01T01:06:31;15.73;;;9.07;;
74320;SDS011;62738;45.772;4.804;2023-03-01T01:09:06;16.73;;;8.90;;
74320;SDS011;62738;45.772;4.804;2023-03-01T01:11:33;17.05;;;9.93;;
74320;SDS011;62738;45.772;4.804;2023-03-01T01:14:03;16.45;;;9.73;;
74320;SDS011;62738;45.772;4.804;2023-03-01T01:16:30;16.13;;;9.55;;
74320;SDS011;62738;45.772;4.804;2023-03-01T01:18:57;17.92;;;10.23;;
74320;SDS011;62738;45.772;4.804;2023-03-01T01:21:24;17.90;;;8.98;;
74320;SDS011;62738;45.772;4.804;2023-03-01T01:23:52;16.10;;;8.93;;
74320;SDS011;62738;45.772;4.804;2023-03-01T01:26:20;15.82;;;9.75;;
74320;SDS011;62738;45.772;4.804;2023-03-01T01:28:49;16.95;;;10.18;;
74320;SDS011;62738;45.772;4.804;2023-03-01T01:31:16;16.20;;;10.10;;
74320;SDS011;62738;45.772;4.804;2023-03-01T01:33:43;17.27;;;9.88;;
74320;SDS011;62738;45.772;4.804;2023-03-01T01:36:10;20.15;;;11.02;;
74320;SDS011;62738;45.772;4.804;2023-03-01T01:38:38;15.88;;;9.13;;
74320;SDS011;62738;45.772;4.804;2023-03-01T01:41:05;17.80;;;9.57;;
74320;SDS011;62738;45.772;4.804;2023-03-01T01:43:37;17.05;;;10.07;;
74320;SDS011;62738;45.772;4.804;2023-03-01T01:49:00;18.10;;;9.85;;
74320;SDS011;62738;45.772;4.804;2023-03-01T01:51:31;15.75;;;8.93;;
74320;SDS011;62738;45.772;4.804;2023-03-01T01:54:15;17.52;;;9.73;;
74320;SDS011;62738;45.772;4.804;2023-03-01T01:56:44;17.40;;;8.93;;
74320;SDS011;62738;45.772;4.804;2023-03-01T01:59:16;15.73;;;8.77;;
74320;SDS011;62738;45.772;4.804;2023-03-01T02:04:24;18.45;;;10.13;;
74320;SDS011;62738;45.772;4.804;2023-03-01T02:06:54;17.95;;;9.75;;
74320;SDS011;62738;45.772;4.804;2023-03-01T02:09:25;18.65;;;9.65;;
74320;SDS011;62738;45.772;4.804;2023-03-01T02:11:53;18.58;;;10.82;;
74320;SDS011;62738;45.772;4.804;2023-03-01T02:14:20;17.25;;;9.95;;
74320;SDS011;62738;45.772;4.804;2023-03-01T02:16:46;16.27;;;9.80;;
74320;SDS011;62738;45.772;4.804;2023-03-01T02:19:19;16.90;;;10.40;;
74320;SDS011;62738;45.772;4.804;2023-03-01T02:22:12;17.17;;;9.30;;
74320;SDS011;62738;45.772;4.804;2023-03-01T02:24:57;15.75;;;9.48;;
74320;SDS011;62738;45.772;4.804;2023-03-01T02:27:30;16.25;;;8.40;;
74320;SDS011;62738;45.772;4.804;2023-03-01T02:30:02;19.27;;;9.25;;
74320;SDS011;62738;45.772;4.804;2023-03-01T02:32:29;22.30;;;10.70;;
74320;SDS011;62738;45.772;4.804;2023-03-01T02:34:57;16.27;;;9.27;;
74320;SDS011;62738;45.772;4.804;2023-03-01T02:37:24;18.92;;;10.30;;
74320;SDS011;62738;45.772;4.804;2023-03-01T02:39:57;17.73;;;10.57;;
74320;SDS011;62738;45.772;4.804;2023-03-01T02:42:26;18.50;;;10.57;;
74320;SDS011;62738;45.772;4.804;2023-03-01T02:44:57;18.10;;;9.65;;
74320;SDS011;62738;45.772;4.804;2023-03-01T02:47:24;19.50;;;10.05;;
74320;SDS011;62738;45.772;4.804;2023-03-01T02:49:51;19.17;;;9.48;;
74320;SDS011;62738;45.772;4.804;2023-03-01T02:52:22;20.58;;;11.25;;
74320;SDS011;62738;45.772;4.804;2023-03-01T02:55:04;18.52;;;9.93;;
74320;SDS011;62738;45.772;4.804;2023-03-01T02:57:35;20.98;;;10.15;;
74320;SDS011;62738;45.772;4.804;2023-03-01T03:00:05;17.30;;;9.82;;
74320;SDS011;62738;45.772;4.804;2023-03-01T03:02:35;17.65;;;10.93;;
74320;SDS011;62738;45.772;4.804;2023-03-01T03:07:43;16.60;;;9.90;;
74320;SDS011;62738;45.772;4.804;2023-03-01T03:10:13;21.50;;;10.48;;
74320;SDS011;62738;45.772;4.804;2023-03-01T03:12:42;19.00;;;10.05;;
74320;SDS011;62738;45.772;4.804;2023-03-01T03:15:09;22.23;;;10.77;;
74320;SDS011;62738;45.772;4.804;2023-03-01T03:17:39;18.00;;;10.20;;
74320;SDS011;62738;45.772;4.804;2023-03-01T03:20:11;18.10;;;10.32;;
74320;SDS011;62738;45.772;4.804;2023-03-01T03:22:49;16.65;;;10.07;;
74320;SDS011;62738;45.772;4.804;2023-03-01T03:25:18;21.73;;;10.90;;
74320;SDS011;62738;45.772;4.804;2023-03-01T03:27:46;20.95;;;10.70;;
74320;SDS011;62738;45.772;4.804;2023-03-01T03:30:15;20.02;;;11.15;;
74320;SDS011;62738;45.772;4.804;2023-03-01T03:32:43;19.05;;;10.85;;
74320;SDS011;62738;45.772;4.804;2023-03-01T03:37:56;20.13;;;10.55;;
74320;SDS011;62738;45.772;4.804;2023-03-01T03:43:00;18.67;;;8.73;;
74320;SDS011;62738;45.772;4.804;2023-03-01T03:45:27;18.45;;;9.25;;
74320;SDS011;62738;45.772;4.804;2023-03-01T03:47:54;19.77;;;9.85;;
74320;SDS011;62738;45.772;4.804;2023-03-01T03:50:20;21.02;;;11.52;;
74320;SDS011;62738;45.772;4.804;2023-03-01T03:52:47;18.65;;;10.18;;
74320;SDS011;62738;45.772;4.804;2023-03-01T03:55:13;21.20;;;11.68;;
74320;SDS011;62738;45.772;4.804;2023-03-01T03:57:40;20.80;;;11.77;;
74320;SDS011;62738;45.772;4.804;2023-03-01T04:00:09;19.83;;;10.27;;
74320;SDS011;62738;45.772;4.804;2023-03-01T04:02:39;19.60;;;11.18;;
74320;SDS011;62738;45.772;4.804;2023-03-01T04:05:08;20.58;;;9.73;;
74320;SDS011;62738;45.772;4.804;2023-03-01T04:07:36;19.98;;;10.23;;
74320;SDS011;62738;45.772;4.804;2023-03-01T04:10:04;20.73;;;11.38;;
74320;SDS011;62738;45.772;4.804;2023-03-01T04:12:33;17.42;;;8.90;;
74320;SDS011;62738;45.772;4.804;2023-03-01T04:15:01;21.38;;;11.23;;
74320;SDS011;62738;45.772;4.804;2023-03-01T04:17:43;20.58;;;11.32;;
74320;SDS011;62738;45.772;4.804;2023-03-01T04:20:11;16.75;;;10.00;;
74320;SDS011;62738;45.772;4.804;2023-03-01T04:22:40;19.50;;;9.15;;
74320;SDS011;62738;45.772;4.804;2023-03-01T04:25:07;17.25;;;9.75;;
74320;SDS011;62738;45.772;4.804;2023-03-01T04:27:34;20.05;;;10.23;;
74320;SDS011;62738;45.772;4.804;2023-03-01T04:30:02;17.20;;;10.15;;
74320;SDS011;62738;45.772;4.804;2023-03-01T04:32:29;19.25;;;10.05;;
74320;SDS011;62738;45.772;4.804;2023-03-01T04:34:56;15.35;;;9.23;;
74320;SDS011;62738;45.772;4.804;2023-03-01T04:37:22;20.20;;;10.80;;
74320;SDS011;62738;45.772;4.804;2023-03-01T04:39:50;17.92;;;10.32;;
74320;SDS011;62738;45.772;4.804;2023-03-01T04:42:16;17.13;;;9.80;;
74320;SDS011;62738;45.772;4.804;2023-03-01T04:44:44;18.02;;;10.30;;
74320;SDS011;62738;45.772;4.804;2023-03-01T04:47:11;20.65;;;10.93;;
74320;SDS011;62738;45.772;4.804;2023-03-01T04:49:38;19.38;;;10.25;;
74320;SDS011;62738;45.772;4.804;2023-03-01T04:52:05;16.42;;;9.82;;
74320;SDS011;62738;45.772;4.804;2023-03-01T04:54:32;19.80;;;10.20;;
74320;SDS011;62738;45.772;4.804;2023-03-01T04:56:59;18.17;;;10.65;;
74320;SDS011;62738;45.772;4.804;2023-03-01T04:59:27;19.75;;;9.95;;
74320;SDS011;62738;45.772;4.804;2023-03-01T05:01:54;17.83;;;9.85;;
74320;SDS011;62738;45.772;4.804;2023-03-01T05:04:22;19.83;;;10.98;;
74320;SDS011;62738;45.772;4.804;2023-03-01T05:06:49;21.77;;;10.27;;
74320;SDS011;62738;45.772;4.804;2023-03-01T05:09:16;18.83;;;10.45;;
74320;SDS011;62738;45.772;4.804;2023-03-01T05:11:43;18.92;;;10.18;;
74320;SDS011;62738;45.772;4.804;2023-03-01T05:14:10;17.55;;;10.05;;
74320;SDS011;62738;45.772;4.804;2023-03-01T05:16:36;20.25;;;10.57;;
74320;SDS011;62738;45.772;4.804;2023-03-01T05:19:03;18.45;;;9.95;;
74320;SDS011;62738;45.772;4.804;2023-03-01T05:21:44;17.27;;;9.05;;
74320;SDS011;62738;45.772;4.804;2023-03-01T05:24:30;18.65;;;10.65;;
74320;SDS011;62738;45.772;4.804;2023-03-01T05:26:58;16.65;;;9.70;;
74320;SDS011;62738;45.772;4.804;2023-03-01T05:29:26;18.52;;;11.00;;
74320;SDS011;62738;45.772;4.804;2023-03-01T05:31:55;21.02;;;11.48;;
74320;SDS011;62738;45.772;4.804;2023-03-01T05:36:52;18.65;;;10.15;;
74320;SDS011;62738;45.772;4.804;2023-03-01T05:39:23;18.08;;;9.93;;
74320;SDS011;62738;45.772;4.804;2023-03-01T05:41:52;20.63;;;10.85;;
74320;SDS011;62738;45.772;4.804;2023-03-01T05:44:20;17.98;;;10.35;;
74320;SDS011;62738;45.772;4.804;2023-03-01T05:46:47;19.13;;;10.35;;
74320;SDS011;62738;45.772;4.804;2023-03-01T05:49:14;18.60;;;9.68;;
74320;SDS011;62738;45.772;4.804;2023-03-01T05:51:41;19.95;;;11.48;;
74320;SDS011;62738;45.772;4.804;2023-03-01T05:54:09;18.55;;;10.43;;
74320;SDS011;62738;45.772;4.804;2023-03-01T05:56:36;19.38;;;11.70;;
74320;SDS011;62738;45.772;4.804;2023-03-01T05:59:03;17.52;;;10.45;;
74320;SDS011;62738;45.772;4.804;2023-03-01T06:01:33;21.80;;;10.73;;
74320;SDS011;62738;45.772;4.804;2023-03-01T06:04:01;19.98;;;10.73;;
74320;SDS011;62738;45.772;4.804;2023-03-01T06:06:28;19.85;;;11.82;;
74320;SDS011;62738;45.772;4.804;2023-03-01T06:08:56;17.45;;;10.63;;
74320;SDS011;62738;45.772;4.804;2023-03-01T06:11:23;20.25;;;10.95;;
74320;SDS011;62738;45.772;4.804;2023-03-01T06:13:49;17.98;;;10.68;;
74320;SDS011;62738;45.772;4.804;2023-03-01T06:16:16;21.77;;;10.30;;
74320;SDS011;62738;45.772;4.804;2023-03-01T06:18:42;19.80;;;11.43;;
74320;SDS011;62738;45.772;4.804;2023-03-01T06:21:09;22.60;;;11.27;;
74320;SDS011;62738;45.772;4.804;2023-03-01T06:23:36;20.95;;;11.50;;
74320;SDS011;62738;45.772;4.804;2023-03-01T06:26:07;20.67;;;11.48;;
74320;SDS011;62738;45.772;4.804;2023-03-01T06:28:35;20.55;;;10.43;;
74320;SDS011;62738;45.772;4.804;2023-03-01T06:31:02;20.23;;;11.02;;
74320;SDS011;62738;45.772;4.804;2023-03-01T06:33:29;20.52;;;10.88;;
74320;SDS011;62738;45.772;4.804;2023-03-01T06:35:55;18.20;;;9.82;;
74320;SDS011;62738;45.772;4.804;2023-03-01T06:38:24;24.40;;;12.50;;
74320;SDS011;62738;45.772;4.804;2023-03-01T06:40:51;21.63;;;12.27;;
74320;SDS011;62738;45.772;4.804;2023-03-01T06:43:20;20.90;;;11.43;;
74320;SDS011;62738;45.772;4.804;2023-03-01T06:45:47;20.42;;;11.63;;
74320;SDS011;62738;45.772;4.804;2023-03-01T06:48:14;21.55;;;12.43;;
74320;SDS011;62738;45.772;4.804;2023-03-01T06:50:41;22.17;;;11.43;;
74320;SDS011;62738;45.772;4.804;2023-03-01T06:53:08;22.80;;;12.30;;
74320;SDS011;62738;45.772;4.804;2023-03-01T06:55:34;20.25;;;11.02;;
74320;SDS011;62738;45.772;4.804;2023-03-01T06:58:02;21.23;;;11.82;;
74320;SDS011;62738;45.772;4.804;2023-03-01T07:00:29;20.27;;;11.98;;
74320;SDS011;62738;45.772;4.804;2023-03-01T07:02:59;24.63;;;12.52;;
74320;SDS011;62738;45.772;4.804;2023-03-01T07:05:28;22.33;;;11.77;;
74320;SDS011;62738;45.772;4.804;2023-03-01T07:07:55;22.05;;;12.25;;
74320;SDS011;62738;45.772;4.804;2023-03-01T07:10:22;22.65;;;12.20;;
74320;SDS011;62738;45.772;4.804;2023-03-01T07:12:49;23.85;;;11.93;;
74320;SDS011;62738;45.772;4.804;2023-03-01T07:15:15;23.48;;;11.52;;
74320;SDS011;62738;45.772;4.804;2023-03-01T07:17:42;22.85;;;11.57;;
74320;SDS011;62738;45.772;4.804;2023-03-01T07:20:10;27.67;;;12.40;;
74320;SDS011;62738;45.772;4.804;2023-03-01T07:22:39;20.77;;;12.52;;
74320;SDS011;62738;45.772;4.804;2023-03-01T07:25:07;20.65;;;11.80;;
74320;SDS011;62738;45.772;4.804;2023-03-01T07:27:34;19.67;;;11.70;;
74320;SDS011;62738;45.772;4.804;2023-03-01T07:30:00;24.23;;;12.65;;
74320;SDS011;62738;45.772;4.804;2023-03-01T07:32:27;20.70;;;12.10;;
74320;SDS011;62738;45.772;4.804;2023-03-01T07:34:54;25.10;;;12.55;;
74320;SDS011;62738;45.772;4.804;2023-03-01T07:37:21;24.73;;;11.77;;
74320;SDS011;62738;45.772;4.804;2023-03-01T07:39:48;22.75;;;12.88;;
74320;SDS011;62738;45.772;4.804;2023-03-01T07:42:14;21.52;;;11.50;;
74320;SDS011;62738;45.772;4.804;2023-03-01T07:44:41;23.08;;;12.75;;
74320;SDS011;62738;45.772;4.804;2023-03-01T07:47:07;23.90;;;13.07;;
74320;SDS011;62738;45.772;4.804;2023-03-01T07:49:34;23.42;;;12.88;;
74320;SDS011;62738;45.772;4.804;2023-03-01T07:52:01;23.10;;;12.82;;
74320;SDS011;62738;45.772;4.804;2023-03-01T07:54:27;23.05;;;12.07;;
74320;SDS011;62738;45.772;4.804;2023-03-01T07:56:55;22.35;;;12.88;;
74320;SDS011;62738;45.772;4.804;2023-03-01T07:59:22;23.27;;;12.38;;
74320;SDS011;62738;45.772;4.804;2023-03-01T08:01:55;22.05;;;12.52;;
74320;SDS011;62738;45.772;4.804;2023-03-01T08:04:23;21.92;;;12.15;;
74320;SDS011;62738;45.772;4.804;2023-03-01T08:06:51;27.13;;;13.57;;
74320;SDS011;62738;45.772;4.804;2023-03-01T08:09:18;27.25;;;11.70;;
74320;SDS011;62738;45.772;4.804;2023-03-01T08:11:44;23.55;;;12.25;;
74320;SDS011;62738;45.772;4.804;2023-03-01T08:14:11;24.38;;;13.02;;
74320;SDS011;62738;45.772;4.804;2023-03-01T08:16:38;24.48;;;13.38;;
74320;SDS011;62738;45.772;4.804;2023-03-01T08:19:05;23.30;;;12.93;;
74320;SDS011;62738;45.772;4.804;2023-03-01T08:21:33;22.88;;;12.38;;
74320;SDS011;62738;45.772;4.804;2023-03-01T08:24:04;26.85;;;12.02;;
74320;SDS011;62738;45.772;4.804;2023-03-01T08:26:32;22.75;;;11.55;;
74320;SDS011;62738;45.772;4.804;2023-03-01T08:28:59;27.63;;;14.98;;
74320;SDS011;62738;45.772;4.804;2023-03-01T08:31:28;27.50;;;15.18;;
74320;SDS011;62738;45.772;4.804;2023-03-01T08:33:57;23.67;;;12.63;;
74320;SDS011;62738;45.772;4.804;2023-03-01T08:36:30;26.42;;;14.05;;
74320;SDS011;62738;45.772;4.804;2023-03-01T08:38:59;26.48;;;14.32;;
74320;SDS011;62738;45.772;4.804;2023-03-01T08:41:25;27.35;;;13.88;;
74320;SDS011;62738;45.772;4.804;2023-03-01T08:43:52;29.13;;;13.90;;
74320;SDS011;62738;45.772;4.804;2023-03-01T08:46:35;27.58;;;14.02;;
74320;SDS011;62738;45.772;4.804;2023-03-01T08:49:06;22.55;;;12.25;;
74320;SDS011;62738;45.772;4.804;2023-03-01T08:51:35;25.38;;;13.82;;
74320;SDS011;62738;45.772;4.804;2023-03-01T08:54:07;23.95;;;13.52;;
74320;SDS011;62738;45.772;4.804;2023-03-01T08:56:37;29.73;;;14.63;;
74320;SDS011;62738;45.772;4.804;2023-03-01T08:59:04;24.95;;;13.73;;
74320;SDS011;62738;45.772;4.804;2023-03-01T09:01:30;26.48;;;12.80;;
74320;SDS011;62738;45.772;4.804;2023-03-01T09:03:57;26.00;;;14.32;;
74320;SDS011;62738;45.772;4.804;2023-03-01T09:06:24;26.63;;;14.15;;
74320;SDS011;62738;45.772;4.804;2023-03-01T09:08:51;22.33;;;13.60;;
74320;SDS011;62738;45.772;4.804;2023-03-01T09:11:19;24.77;;;14.40;;
74320;SDS011;62738;45.772;4.804;2023-03-01T09:13:47;28.40;;;14.75;;
74320;SDS011;62738;45.772;4.804;2023-03-01T09:16:15;26.17;;;13.38;;
74320;SDS011;62738;45.772;4.804;2023-03-01T09:18:44;24.55;;;12.93;;
74320;SDS011;62738;45.772;4.804;2023-03-01T09:21:12;25.55;;;13.60;;
74320;SDS011;62738;45.772;4.804;2023-03-01T09:23:42;27.35;;;15.07;;
74320;SDS011;62738;45.772;4.804;2023-03-01T09:26:12;24.45;;;12.68;;
74320;SDS011;62738;45.772;4.804;2023-03-01T09:28:42;26.20;;;13.98;;
74320;SDS011;62738;45.772;4.804;2023-03-01T09:31:10;24.55;;;14.27;;
74320;SDS011;62738;45.772;4.804;2023-03-01T09:33:41;25.27;;;13.30;;
74320;SDS011;62738;45.772;4.804;2023-03-01T09:36:10;23.80;;;13.43;;
74320;SDS011;62738;45.772;4.804;2023-03-01T09:38:38;26.98;;;15.52;;
74320;SDS011;62738;45.772;4.804;2023-03-01T09:43:45;24.85;;;13.75;;
74320;SDS011;62738;45.772;4.804;2023-03-01T09:46:13;25.20;;;14.43;;
74320;SDS011;62738;45.772;4.804;2023-03-01T09:48:49;26.65;;;14.10;;
74320;SDS011;62738;45.772;4.804;2023-03-01T09:51:48;26.23;;;13.98;;
74320;SDS011;62738;45.772;4.804;2023-03-01T09:54:21;25.50;;;13.38;;
74320;SDS011;62738;45.772;4.804;2023-03-01T09:57:11;22.67;;;12.38;;
74320;SDS011;62738;45.772;4.804;2023-03-01T09:59:56;28.15;;;15.18;;
74320;SDS011;62738;45.772;4.804;2023-03-01T10:02:43;27.40;;;14.73;;
74320;SDS011;62738;45.772;4.804;2023-03-01T10:05:17;25.98;;;13.73;;
74320;SDS011;62738;45.772;4.804;2023-03-01T10:10:55;24.75;;;13.90;;
74320;SDS011;62738;45.772;4.804;2023-03-01T10:13:42;26.83;;;14.38;;
74320;SDS011;62738;45.772;4.804;2023-03-01T10:16:25;24.33;;;14.15;;
74320;SDS011;62738;45.772;4.804;2023-03-01T10:19:02;24.75;;;13.93;;
74320;SDS011;62738;45.772;4.804;2023-03-01T10:21:30;25.58;;;14.30;;
74320;SDS011;62738;45.772;4.804;2023-03-01T10:24:11;23.50;;;13.50;;
74320;SDS011;62738;45.772;4.804;2023-03-01T10:26:44;23.75;;;14.35;;
74320;SDS011;62738;45.772;4.804;2023-03-01T10:29:14;24.13;;;14.00;;
74320;SDS011;62738;45.772;4.804;2023-03-01T10:37:01;24.77;;;14.27;;
74320;SDS011;62738;45.772;4.804;2023-03-01T10:39:36;26.45;;;13.55;;
74320;SDS011;62738;45.772;4.804;2023-03-01T10:42:04;25.88;;;14.38;;
74320;SDS011;62738;45.772;4.804;2023-03-01T10:44:39;26.88;;;15.70;;
74320;SDS011;62738;45.772;4.804;2023-03-01T10:47:13;28.58;;;15.75;;
74320;SDS011;62738;45.772;4.804;2023-03-01T10:49:42;27.08;;;13.63;;
74320;SDS011;62738;45.772;4.804;2023-03-01T10:52:20;27.27;;;14.30;;
74320;SDS011;62738;45.772;4.804;2023-03-01T10:54:53;28.10;;;14.73;;
74320;SDS011;62738;45.772;4.804;2023-03-01T10:57:55;27.25;;;16.15;;
74320;SDS011;62738;45.772;4.804;2023-03-01T11:02:45;23.83;;;14.23;;
74320;SDS011;62738;45.772;4.804;2023-03-01T11:08:02;24.30;;;15.48;;
74320;SDS011;62738;45.772;4.804;2023-03-01T11:10:30;24.27;;;12.95;;
74320;SDS011;62738;45.772;4.804;2023-03-01T11:13:18;28.50;;;14.60;;
74320;SDS011;62738;45.772;4.804;2023-03-01T11:15:59;22.52;;;12.25;;
74320;SDS011;62738;45.772;4.804;2023-03-01T11:18:26;26.40;;;14.63;;
74320;SDS011;62738;45.772;4.804;2023-03-01T11:21:11;30.52;;;15.38;;
74320;SDS011;62738;45.772;4.804;2023-03-01T11:23:38;27.90;;;14.90;;
74320;SDS011;62738;45.772;4.804;2023-03-01T11:26:07;27.02;;;14.73;;
74320;SDS011;62738;45.772;4.804;2023-03-01T11:28:38;26.10;;;14.95;;
74320;SDS011;62738;45.772;4.804;2023-03-01T11:31:08;25.30;;;14.38;;
74320;SDS011;62738;45.772;4.804;2023-03-01T11:33:46;25.67;;;14.07;;
74320;SDS011;62738;45.772;4.804;2023-03-01T11:36:33;25.83;;;15.13;;
74320;SDS011;62738;45.772;4.804;2023-03-01T11:42:05;27.73;;;14.68;;
74320;SDS011;62738;45.772;4.804;2023-03-01T11:44:44;26.42;;;13.73;;
74320;SDS011;62738;45.772;4.804;2023-03-01T12:10:26;25.70;;;15.40;;
74320;SDS011;62738;45.772;4.804;2023-03-01T12:21:18;25.58;;;14.50;;
74320;SDS011;62738;45.772;4.804;2023-03-01T12:26:37;26.25;;;15.00;;
74320;SDS011;62738;45.772;4.804;2023-03-01T12:48:23;28.48;;;15.88;;
74320;SDS011;62738;45.772;4.804;2023-03-01T12:51:10;28.17;;;16.08;;
74320;SDS011;62738;45.772;4.804;2023-03-01T12:53:44;30.05;;;15.90;;
74320;SDS011;62738;45.772;4.804;2023-03-01T12:56:34;28.02;;;17.15;;
74320;SDS011;62738;45.772;4.804;2023-03-01T12:59:15;28.85;;;16.25;;
74320;SDS011;62738;45.772;4.804;2023-03-01T13:10:34;31.08;;;17.63;;
74320;SDS011;62738;45.772;4.804;2023-03-01T13:13:11;29.25;;;15.70;;
74320;SDS011;62738;45.772;4.804;2023-03-01T13:15:46;30.20;;;16.27;;
74320;SDS011;62738;45.772;4.804;2023-03-01T13:20:46;30.63;;;16.70;;
74320;SDS011;62738;45.772;4.804;2023-03-01T13:33:44;28.90;;;16.50;;
74320;SDS011;62738;45.772;4.804;2023-03-01T13:36:55;32.55;;;17.52;;
74320;SDS011;62738;45.772;4.804;2023-03-01T13:39:04;40.15;;;16.70;;
74320;SDS011;62738;45.772;4.804;2023-03-01T13:41:54;29.33;;;16.63;;
74320;SDS011;62738;45.772;4.804;2023-03-01T13:49:44;28.67;;;16.63;;
74320;SDS011;62738;45.772;4.804;2023-03-01T14:01:23;29.52;;;16.75;;
74320;SDS011;62738;45.772;4.804;2023-03-01T14:03:59;27.17;;;16.00;;
74320;SDS011;62738;45.772;4.804;2023-03-01T14:06:28;29.52;;;16.77;;
74320;SDS011;62738;45.772;4.804;2023-03-01T14:17:12;33.15;;;16.73;;
74320;SDS011;62738;45.772;4.804;2023-03-01T14:19:44;29.88;;;16.38;;
74320;SDS011;62738;45.772;4.804;2023-03-01T14:22:23;28.58;;;15.85;;
74320;SDS011;62738;45.772;4.804;2023-03-01T14:24:58;28.92;;;16.48;;
74320;SDS011;62738;45.772;4.804;2023-03-01T14:27:28;26.25;;;14.30;;
74320;SDS011;62738;45.772;4.804;2023-03-01T14:30:00;28.00;;;15.68;;
74320;SDS011;62738;45.772;4.804;2023-03-01T14:32:29;28.27;;;15.32;;
74320;SDS011;62738;45.772;4.804;2023-03-01T14:34:58;30.83;;;16.83;;
74320;SDS011;62738;45.772;4.804;2023-03-01T14:37:32;28.05;;;15.40;;
74320;SDS011;62738;45.772;4.804;2023-03-01T14:40:02;27.27;;;15.00;;
74320;SDS011;62738;45.772;4.804;2023-03-01T14:42:36;28.55;;;15.50;;
74320;SDS011;62738;45.772;4.804;2023-03-01T14:45:03;30.45;;;16.35;;
74320;SDS011;62738;45.772;4.804;2023-03-01T14:47:32;25.35;;;14.60;;
74320;SDS011;62738;45.772;4.804;2023-03-01T14:50:08;26.13;;;14.40;;
74320;SDS011;62738;45.772;4.804;2023-03-01T14:52:56;27.10;;;15.60;;
74320;SDS011;62738;45.772;4.804;2023-03-01T14:55:30;28.27;;;15.50;;
74320;SDS011;62738;45.772;4.804;2023-03-01T14:58:03;26.38;;;16.33;;
74320;SDS011;62738;45.772;4.804;2023-03-01T15:00:31;27.67;;;14.90;;
74320;SDS011;62738;45.772;4.804;2023-03-01T15:03:00;28.55;;;15.30;;
74320;SDS011;62738;45.772;4.804;2023-03-01T15:05:36;28.95;;;15.50;;
74320;SDS011;62738;45.772;4.804;2023-03-01T15:08:03;25.77;;;14.57;;
74320;SDS011;62738;45.772;4.804;2023-03-01T15:10:32;26.42;;;15.30;;
74320;SDS011;62738;45.772;4.804;2023-03-01T15:13:22;28.30;;;15.30;;
74320;SDS011;62738;45.772;4.804;2023-03-01T15:15:53;29.77;;;15.43;;
74320;SDS011;62738;45.772;4.804;2023-03-01T15:18:29;25.63;;;15.05;;
74320;SDS011;62738;45.772;4.804;2023-03-01T15:20:56;26.95;;;15.30;;
74320;SDS011;62738;45.772;4.804;2023-03-01T15:23:33;24.02;;;14.50;;
74320;SDS011;62738;45.772;4.804;2023-03-01T15:26:00;27.75;;;15.45;;
74320;SDS011;62738;45.772;4.804;2023-03-01T15:28:28;26.27;;;15.27;;
74320;SDS011;62738;45.772;4.804;2023-03-01T15:31:47;27.42;;;15.18;;
74320;SDS011;62738;45.772;4.804;2023-03-01T15:33:49;25.90;;;14.85;;
74320;SDS011;62738;45.772;4.804;2023-03-01T15:36:30;24.35;;;13.55;;
74320;SDS011;62738;45.772;4.804;2023-03-01T15:38:57;27.42;;;14.77;;
74320;SDS011;62738;45.772;4.804;2023-03-01T15:41:27;26.33;;;14.77;;
74320;SDS011;62738;45.772;4.804;2023-03-01T15:44:00;26.20;;;15.45;;
74320;SDS011;62738;45.772;4.804;2023-03-01T15:46:40;26.48;;;14.25;;
74320;SDS011;62738;45.772;4.804;2023-03-01T15:49:25;26.45;;;14.35;;
74320;SDS011;62738;45.772;4.804;2023-03-01T15:51:55;27.42;;;15.07;;
74320;SDS011;62738;45.772;4.804;2023-03-01T15:54:23;23.27;;;13.93;;
74320;SDS011;62738;45.772;4.804;2023-03-01T15:56:52;26.40;;;14.65;;
74320;SDS011;62738;45.772;4.804;2023-03-01T15:59:19;28.45;;;15.32;;
74320;SDS011;62738;45.772;4.804;2023-03-01T16:01:45;27.75;;;15.27;;
74320;SDS011;62738;45.772;4.804;2023-03-01T16:04:15;23.23;;;13.15;;
74320;SDS011;62738;45.772;4.804;2023-03-01T16:06:51;27.10;;;14.65;;
74320;SDS011;62738;45.772;4.804;2023-03-01T16:09:25;27.40;;;15.50;;
74320;SDS011;62738;45.772;4.804;2023-03-01T16:11:53;27.17;;;15.45;;
74320;SDS011;62738;45.772;4.804;2023-03-01T16:14:20;27.25;;;14.10;;
74320;SDS011;62738;45.772;4.804;2023-03-01T16:16:46;27.60;;;14.50;;
74320;SDS011;62738;45.772;4.804;2023-03-01T16:19:14;26.35;;;14.50;;
74320;SDS011;62738;45.772;4.804;2023-03-01T16:21:41;24.50;;;13.93;;
74320;SDS011;62738;45.772;4.804;2023-03-01T16:24:09;26.23;;;14.85;;
74320;SDS011;62738;45.772;4.804;2023-03-01T16:26:36;27.73;;;14.88;;
74320;SDS011;62738;45.772;4.804;2023-03-01T16:29:04;24.38;;;13.73;;
74320;SDS011;62738;45.772;4.804;2023-03-01T16:31:31;27.15;;;13.95;;
74320;SDS011;62738;45.772;4.804;2023-03-01T16:33:59;24.80;;;14.73;;
74320;SDS011;62738;45.772;4.804;2023-03-01T16:36:26;24.73;;;14.68;;
74320;SDS011;62738;45.772;4.804;2023-03-01T16:38:55;26.48;;;14.63;;
74320;SDS011;62738;45.772;4.804;2023-03-01T16:41:24;29.20;;;15.32;;
74320;SDS011;62738;45.772;4.804;2023-03-01T16:43:51;25.88;;;14.52;;
74320;SDS011;62738;45.772;4.804;2023-03-01T16:46:25;28.70;;;15.43;;
74320;SDS011;62738;45.772;4.804;2023-03-01T16:48:54;25.15;;;14.60;;
74320;SDS011;62738;45.772;4.804;2023-03-01T16:51:21;27.88;;;14.52;;
74320;SDS011;62738;45.772;4.804;2023-03-01T16:53:49;26.83;;;14.68;;
74320;SDS011;62738;45.772;4.804;2023-03-01T16:56:17;25.45;;;14.73;;